sensor_id;sensor_type;location;lat;lon;timestamp;temperature;humidity
15636;DHT22;7917;50.818;6.972;2023-11-19T00:00:22;10.40;99.90
15636;DHT22;7917;50.818;6.972;2023-11-19T00:02:49;10.40;99.90
15636;DHT22;7917;50.818;6.972;2023-11-19T00:05:18;10.30;99.90
15636;DHT22;7917;50.818;6.972;2023-11-19T00:07:46;10.30;99.90
15636;DHT22;7917;50.818;6.972;2023-11-19T00:10:16;10.20;99.90
15636;DHT22;7917;50.818;6.972;2023-11-19T00:12:46;10.20;99.90
15636;DHT22;7917;50.818;6.972;2023-11-19T00:15:13;10.10;99.90
15636;DHT22;7917;50.818;6.972;2023-11-19T00:17:42;10.10;99.90
15636;DHT22;7917;50.818;6.972;2023-11-19T00:20:11;10.10;99.90
15636;DHT22;7917;50.818;6.972;2023-11-19T00:22:38;10.10;99.90
15636;DHT22;7917;50.818;6.972;2023-11-19T00:25:07;10.10;99.90
15636;DHT22;7917;50.818;6.972;2023-11-19T00:27:35;10.00;99.90
15636;DHT22;7917;50.818;6.972;2023-11-19T00:30:04;10.00;99.90
15636;DHT22;7917;50.818;6.972;2023-11-19T00:32:31;10.00;99.90
15636;DHT22;7917;50.818;6.972;2023-11-19T00:34:58;10.00;99.90
15636;DHT22;7917;50.818;6.972;2023-11-19T00:37:25;9.90;99.90
15636;DHT22;7917;50.818;6.972;2023-11-19T00:40:08;9.90;99.90
15636;DHT22;7917;50.818;6.972;2023-11-19T00:42:37;9.90;99.90
15636;DHT22;7917;50.818;6.972;2023-11-19T00:45:05;9.90;99.90
15636;DHT22;7917;50.818;6.972;2023-11-19T00:47:34;9.90;99.90
15636;DHT22;7917;50.818;6.972;2023-11-19T00:50:01;9.90;99.90
15636;DHT22;7917;50.818;6.972;2023-11-19T00:52:28;9.90;99.90
15636;DHT22;7917;50.818;6.972;2023-11-19T00:54:56;10.00;99.90
15636;DHT22;7917;50.818;6.972;2023-11-19T00:57:23;10.20;99.90
15636;DHT22;7917;50.818;6.972;2023-11-19T00:59:51;10.50;99.90
15636;DHT22;7917;50.818;6.972;2023-11-19T01:02:19;10.70;99.90
15636;DHT22;7917;50.818;6.972;2023-11-19T01:04:47;10.90;99.90
15636;DHT22;7917;50.818;6.972;2023-11-19T01:07:14;11.00;99.90
15636;DHT22;7917;50.818;6.972;2023-11-19T01:09:42;11.10;99.90
15636;DHT22;7917;50.818;6.972;2023-11-19T01:12:09;11.10;99.90
15636;DHT22;7917;50.818;6.972;2023-11-19T01:14:36;11.10;99.90
15636;DHT22;7917;50.818;6.972;2023-11-19T01:17:05;11.10;99.90
15636;DHT22;7917;50.818;6.972;2023-11-19T01:19:32;11.10;99.90
15636;DHT22;7917;50.818;6.972;2023-11-19T01:22:00;11.10;99.90
15636;DHT22;7917;50.818;6.972;2023-11-19T01:24:27;11.10;99.90
15636;DHT22;7917;50.818;6.972;2023-11-19T01:26:54;11.20;99.90
15636;DHT22;7917;50.818;6.972;2023-11-19T01:29:23;11.10;99.90
15636;DHT22;7917;50.818;6.972;2023-11-19T01:31:50;11.10;99.90
15636;DHT22;7917;50.818;6.972;2023-11-19T01:34:18;11.10;99.90
15636;DHT22;7917;50.818;6.972;2023-11-19T01:36:46;11.10;99.90
15636;DHT22;7917;50.818;6.972;2023-11-19T01:39:14;11.10;99.90
15636;DHT22;7917;50.818;6.972;2023-11-19T01:41:42;11.20;99.90
15636;DHT22;7917;50.818;6.972;2023-11-19T01:44:09;11.20;99.90
15636;DHT22;7917;50.818;6.972;2023-11-19T01:46:38;11.20;99.90
15636;DHT22;7917;50.818;6.972;2023-11-19T01:49:07;11.30;99.90
15636;DHT22;7917;50.818;6.972;2023-11-19T01:51:35;11.40;99.90
15636;DHT22;7917;50.818;6.972;2023-11-19T01:54:03;11.40;99.90
15636;DHT22;7917;50.818;6.972;2023-11-19T01:56:31;11.40;99.90
15636;DHT22;7917;50.818;6.972;2023-11-19T01:58:58;11.40;99.90
15636;DHT22;7917;50.818;6.972;2023-11-19T02:01:25;11.40;99.90
15636;DHT22;7917;50.818;6.972;2023-11-19T02:03:53;11.40;99.90
15636;DHT22;7917;50.818;6.972;2023-11-19T02:06:21;11.30;99.90
15636;DHT22;7917;50.818;6.972;2023-11-19T02:08:49;11.20;99.90
15636;DHT22;7917;50.818;6.972;2023-11-19T02:11:15;11.30;99.90
15636;DHT22;7917;50.818;6.972;2023-11-19T02:13:42;11.30;99.90
15636;DHT22;7917;50.818;6.972;2023-11-19T02:16:10;11.30;99.90
15636;DHT22;7917;50.818;6.972;2023-11-19T02:18:37;11.30;99.90
15636;DHT22;7917;50.818;6.972;2023-11-19T02:21:05;11.30;99.90
15636;DHT22;7917;50.818;6.972;2023-11-19T02:23:32;11.30;99.90
15636;DHT22;7917;50.818;6.972;2023-11-19T02:26:05;11.30;99.90
15636;DHT22;7917;50.818;6.972;2023-11-19T02:28:36;11.20;99.90
15636;DHT22;7917;50.818;6.972;2023-11-19T02:31:03;11.30;99.90
15636;DHT22;7917;50.818;6.972;2023-11-19T02:33:30;11.20;99.90
15636;DHT22;7917;50.818;6.972;2023-11-19T02:35:57;11.10;99.90
15636;DHT22;7917;50.818;6.972;2023-11-19T02:38:24;11.10;99.90
15636;DHT22;7917;50.818;6.972;2023-11-19T02:40:51;11.00;99.90
15636;DHT22;7917;50.818;6.972;2023-11-19T02:43:19;11.00;99.90
15636;DHT22;7917;50.818;6.972;2023-11-19T02:45:47;11.10;99.90
15636;DHT22;7917;50.818;6.972;2023-11-19T02:48:14;11.20;99.90
15636;DHT22;7917;50.818;6.972;2023-11-19T02:50:41;11.30;99.90
15636;DHT22;7917;50.818;6.972;2023-11-19T02:53:08;11.30;99.90
15636;DHT22;7917;50.818;6.972;2023-11-19T02:55:35;11.30;99.90
15636;DHT22;7917;50.818;6.972;2023-11-19T02:58:04;11.40;99.90
15636;DHT22;7917;50.818;6.972;2023-11-19T03:00:40;11.40;99.90
15636;DHT22;7917;50.818;6.972;2023-11-19T03:03:15;11.40;99.90
15636;DHT22;7917;50.818;6.972;2023-11-19T03:05:46;11.40;99.90
15636;DHT22;7917;50.818;6.972;2023-11-19T03:08:13;11.30;99.90
15636;DHT22;7917;50.818;6.972;2023-11-19T03:10:40;11.50;99.90
15636;DHT22;7917;50.818;6.972;2023-11-19T03:13:11;11.60;99.90
15636;DHT22;7917;50.818;6.972;2023-11-19T03:15:39;11.60;99.90
15636;DHT22;7917;50.818;6.972;2023-11-19T03:18:05;11.60;99.90
15636;DHT22;7917;50.818;6.972;2023-11-19T03:20:33;11.60;99.90
15636;DHT22;7917;50.818;6.972;2023-11-19T03:23:00;11.60;99.90
15636;DHT22;7917;50.818;6.972;2023-11-19T03:25:27;11.60;99.90
15636;DHT22;7917;50.818;6.972;2023-11-19T03:27:59;11.70;99.90
15636;DHT22;7917;50.818;6.972;2023-11-19T03:30:26;11.80;99.90
15636;DHT22;7917;50.818;6.972;2023-11-19T03:32:54;11.90;99.90
15636;DHT22;7917;50.818;6.972;2023-11-19T03:35:21;11.90;99.90
15636;DHT22;7917;50.818;6.972;2023-11-19T03:37:49;11.80;99.90
15636;DHT22;7917;50.818;6.972;2023-11-19T03:40:15;12.00;99.90
15636;DHT22;7917;50.818;6.972;2023-11-19T03:42:42;12.10;99.90
15636;DHT22;7917;50.818;6.972;2023-11-19T03:45:10;12.10;99.90
15636;DHT22;7917;50.818;6.972;2023-11-19T03:47:37;12.10;99.90
15636;DHT22;7917;50.818;6.972;2023-11-19T03:50:05;12.20;99.90
15636;DHT22;7917;50.818;6.972;2023-11-19T03:52:33;12.20;99.90
15636;DHT22;7917;50.818;6.972;2023-11-19T03:55:01;12.20;99.90
15636;DHT22;7917;50.818;6.972;2023-11-19T03:57:29;12.20;99.90
15636;DHT22;7917;50.818;6.972;2023-11-19T03:59:55;12.40;99.90
15636;DHT22;7917;50.818;6.972;2023-11-19T04:05:46;12.40;99.90
15636;DHT22;7917;50.818;6.972;2023-11-19T04:08:12;12.50;99.90
15636;DHT22;7917;50.818;6.972;2023-11-19T04:10:39;12.70;99.90
15636;DHT22;7917;50.818;6.972;2023-11-19T04:13:07;12.80;99.90
15636;DHT22;7917;50.818;6.972;2023-11-19T04:15:33;12.80;99.90
15636;DHT22;7917;50.818;6.972;2023-11-19T04:18:00;12.80;99.90
15636;DHT22;7917;50.818;6.972;2023-11-19T04:20:27;12.90;99.90
15636;DHT22;7917;50.818;6.972;2023-11-19T04:22:53;12.80;99.90
15636;DHT22;7917;50.818;6.972;2023-11-19T04:25:19;12.90;99.90
15636;DHT22;7917;50.818;6.972;2023-11-19T04:27:47;12.90;99.90
15636;DHT22;7917;50.818;6.972;2023-11-19T04:30:14;12.90;99.90
15636;DHT22;7917;50.818;6.972;2023-11-19T04:32:41;12.80;99.90
15636;DHT22;7917;50.818;6.972;2023-11-19T04:35:08;12.70;99.90
15636;DHT22;7917;50.818;6.972;2023-11-19T04:37:35;12.70;99.90
15636;DHT22;7917;50.818;6.972;2023-11-19T04:40:02;12.70;99.90
15636;DHT22;7917;50.818;6.972;2023-11-19T04:42:29;12.60;99.90
15636;DHT22;7917;50.818;6.972;2023-11-19T04:44:56;12.60;99.90
15636;DHT22;7917;50.818;6.972;2023-11-19T04:47:23;12.50;99.90
15636;DHT22;7917;50.818;6.972;2023-11-19T04:49:49;12.50;99.90
15636;DHT22;7917;50.818;6.972;2023-11-19T04:52:16;12.30;99.90
15636;DHT22;7917;50.818;6.972;2023-11-19T04:54:43;12.30;99.90
15636;DHT22;7917;50.818;6.972;2023-11-19T04:57:09;12.40;99.90
15636;DHT22;7917;50.818;6.972;2023-11-19T04:59:37;12.40;99.90
15636;DHT22;7917;50.818;6.972;2023-11-19T05:02:04;12.40;99.90
15636;DHT22;7917;50.818;6.972;2023-11-19T05:04:30;12.30;99.90
15636;DHT22;7917;50.818;6.972;2023-11-19T05:06:57;12.30;99.90
15636;DHT22;7917;50.818;6.972;2023-11-19T05:09:24;12.30;99.90
15636;DHT22;7917;50.818;6.972;2023-11-19T05:11:51;12.20;99.90
15636;DHT22;7917;50.818;6.972;2023-11-19T05:14:18;12.20;99.90
15636;DHT22;7917;50.818;6.972;2023-11-19T05:16:46;12.10;99.90
15636;DHT22;7917;50.818;6.972;2023-11-19T05:19:13;12.10;99.90
15636;DHT22;7917;50.818;6.972;2023-11-19T05:21:41;12.20;99.90
15636;DHT22;7917;50.818;6.972;2023-11-19T05:24:09;12.20;99.90
15636;DHT22;7917;50.818;6.972;2023-11-19T05:26:35;12.20;99.90
15636;DHT22;7917;50.818;6.972;2023-11-19T05:29:02;12.10;99.90
15636;DHT22;7917;50.818;6.972;2023-11-19T05:31:29;12.00;99.90
15636;DHT22;7917;50.818;6.972;2023-11-19T05:33:56;12.00;99.90
15636;DHT22;7917;50.818;6.972;2023-11-19T05:36:23;12.00;99.90
15636;DHT22;7917;50.818;6.972;2023-11-19T05:38:50;12.00;99.90
15636;DHT22;7917;50.818;6.972;2023-11-19T05:41:16;12.10;99.90
15636;DHT22;7917;50.818;6.972;2023-11-19T05:43:43;12.00;99.90
15636;DHT22;7917;50.818;6.972;2023-11-19T05:46:10;12.00;99.90
15636;DHT22;7917;50.818;6.972;2023-11-19T05:48:36;12.00;99.90
15636;DHT22;7917;50.818;6.972;2023-11-19T05:51:04;12.00;99.90
15636;DHT22;7917;50.818;6.972;2023-11-19T05:53:32;12.00;99.90
15636;DHT22;7917;50.818;6.972;2023-11-19T05:55:59;12.00;99.90
15636;DHT22;7917;50.818;6.972;2023-11-19T05:58:29;11.90;99.90
15636;DHT22;7917;50.818;6.972;2023-11-19T06:00:56;11.90;99.90
15636;DHT22;7917;50.818;6.972;2023-11-19T06:03:23;11.80;99.90
15636;DHT22;7917;50.818;6.972;2023-11-19T06:05:49;11.80;99.90
15636;DHT22;7917;50.818;6.972;2023-11-19T06:08:16;11.80;99.90
15636;DHT22;7917;50.818;6.972;2023-11-19T06:10:44;11.70;99.90
15636;DHT22;7917;50.818;6.972;2023-11-19T06:13:12;11.80;99.90
15636;DHT22;7917;50.818;6.972;2023-11-19T06:15:40;11.60;99.90
15636;DHT22;7917;50.818;6.972;2023-11-19T06:18:07;11.60;99.90
15636;DHT22;7917;50.818;6.972;2023-11-19T06:20:34;11.70;99.90
15636;DHT22;7917;50.818;6.972;2023-11-19T06:23:00;11.70;99.90
15636;DHT22;7917;50.818;6.972;2023-11-19T06:25:27;11.80;99.90
15636;DHT22;7917;50.818;6.972;2023-11-19T06:27:55;11.70;99.90
15636;DHT22;7917;50.818;6.972;2023-11-19T06:30:22;11.90;99.90
15636;DHT22;7917;50.818;6.972;2023-11-19T06:32:49;12.00;99.90
15636;DHT22;7917;50.818;6.972;2023-11-19T06:35:17;12.00;99.90
15636;DHT22;7917;50.818;6.972;2023-11-19T06:37:45;11.90;99.90
15636;DHT22;7917;50.818;6.972;2023-11-19T06:40:12;11.90;99.90
15636;DHT22;7917;50.818;6.972;2023-11-19T06:42:41;11.80;99.90
15636;DHT22;7917;50.818;6.972;2023-11-19T06:45:09;11.70;99.90
15636;DHT22;7917;50.818;6.972;2023-11-19T06:47:35;11.70;99.90
15636;DHT22;7917;50.818;6.972;2023-11-19T06:50:03;11.60;99.90
15636;DHT22;7917;50.818;6.972;2023-11-19T06:52:31;11.60;99.90
15636;DHT22;7917;50.818;6.972;2023-11-19T06:54:58;11.60;99.90
15636;DHT22;7917;50.818;6.972;2023-11-19T06:57:25;11.60;99.90
15636;DHT22;7917;50.818;6.972;2023-11-19T06:59:52;11.60;99.90
15636;DHT22;7917;50.818;6.972;2023-11-19T07:02:19;11.80;99.90
15636;DHT22;7917;50.818;6.972;2023-11-19T07:04:46;11.70;99.90
15636;DHT22;7917;50.818;6.972;2023-11-19T07:07:13;11.80;99.90
15636;DHT22;7917;50.818;6.972;2023-11-19T07:09:41;11.80;99.90
15636;DHT22;7917;50.818;6.972;2023-11-19T07:12:09;11.80;99.90
15636;DHT22;7917;50.818;6.972;2023-11-19T07:14:36;11.90;99.90
15636;DHT22;7917;50.818;6.972;2023-11-19T07:17:03;11.80;99.90
15636;DHT22;7917;50.818;6.972;2023-11-19T07:19:30;11.80;99.90
15636;DHT22;7917;50.818;6.972;2023-11-19T07:21:57;11.80;99.90
15636;DHT22;7917;50.818;6.972;2023-11-19T07:24:24;11.80;99.90
15636;DHT22;7917;50.818;6.972;2023-11-19T07:26:50;11.70;99.90
15636;DHT22;7917;50.818;6.972;2023-11-19T07:29:17;11.70;99.90
15636;DHT22;7917;50.818;6.972;2023-11-19T07:31:44;11.70;99.90
15636;DHT22;7917;50.818;6.972;2023-11-19T07:34:11;11.90;99.90
15636;DHT22;7917;50.818;6.972;2023-11-19T07:36:38;11.80;99.90
15636;DHT22;7917;50.818;6.972;2023-11-19T07:39:05;11.70;99.90
15636;DHT22;7917;50.818;6.972;2023-11-19T07:41:32;11.60;99.90
15636;DHT22;7917;50.818;6.972;2023-11-19T07:43:58;11.70;99.90
15636;DHT22;7917;50.818;6.972;2023-11-19T07:46:25;11.70;99.90
15636;DHT22;7917;50.818;6.972;2023-11-19T07:48:54;11.90;99.90
15636;DHT22;7917;50.818;6.972;2023-11-19T07:51:21;11.90;99.90
15636;DHT22;7917;50.818;6.972;2023-11-19T07:53:48;12.10;99.90
15636;DHT22;7917;50.818;6.972;2023-11-19T07:56:15;12.20;99.90
15636;DHT22;7917;50.818;6.972;2023-11-19T07:58:42;12.20;99.90
15636;DHT22;7917;50.818;6.972;2023-11-19T08:01:09;12.30;99.90
15636;DHT22;7917;50.818;6.972;2023-11-19T08:03:36;12.30;99.90
15636;DHT22;7917;50.818;6.972;2023-11-19T08:06:04;12.20;99.90
15636;DHT22;7917;50.818;6.972;2023-11-19T08:08:33;12.20;99.90
15636;DHT22;7917;50.818;6.972;2023-11-19T08:11:01;12.10;99.90
15636;DHT22;7917;50.818;6.972;2023-11-19T08:13:28;12.10;99.90
15636;DHT22;7917;50.818;6.972;2023-11-19T08:15:54;12.10;99.90
15636;DHT22;7917;50.818;6.972;2023-11-19T08:18:22;12.10;99.90
15636;DHT22;7917;50.818;6.972;2023-11-19T08:20:49;12.10;99.90
15636;DHT22;7917;50.818;6.972;2023-11-19T08:23:18;12.20;99.90
15636;DHT22;7917;50.818;6.972;2023-11-19T08:25:45;12.20;99.90
15636;DHT22;7917;50.818;6.972;2023-11-19T08:28:12;12.30;99.90
15636;DHT22;7917;50.818;6.972;2023-11-19T08:30:39;12.40;99.90
15636;DHT22;7917;50.818;6.972;2023-11-19T08:33:06;12.40;99.90
15636;DHT22;7917;50.818;6.972;2023-11-19T08:35:33;12.50;99.90
15636;DHT22;7917;50.818;6.972;2023-11-19T08:38:01;12.50;99.90
15636;DHT22;7917;50.818;6.972;2023-11-19T08:40:28;12.50;99.90
15636;DHT22;7917;50.818;6.972;2023-11-19T08:42:55;12.50;99.90
15636;DHT22;7917;50.818;6.972;2023-11-19T08:45:23;12.60;99.90
15636;DHT22;7917;50.818;6.972;2023-11-19T08:47:50;12.60;99.90
15636;DHT22;7917;50.818;6.972;2023-11-19T08:50:17;12.70;99.90
15636;DHT22;7917;50.818;6.972;2023-11-19T08:52:44;12.70;99.90
15636;DHT22;7917;50.818;6.972;2023-11-19T08:55:11;12.80;99.90
15636;DHT22;7917;50.818;6.972;2023-11-19T08:57:39;12.70;99.90
15636;DHT22;7917;50.818;6.972;2023-11-19T09:00:07;12.70;99.90
15636;DHT22;7917;50.818;6.972;2023-11-19T09:02:34;12.80;99.90
15636;DHT22;7917;50.818;6.972;2023-11-19T09:05:03;12.80;99.90
15636;DHT22;7917;50.818;6.972;2023-11-19T09:07:29;12.90;99.90
15636;DHT22;7917;50.818;6.972;2023-11-19T09:09:56;12.90;99.90
15636;DHT22;7917;50.818;6.972;2023-11-19T09:12:23;12.90;99.90
15636;DHT22;7917;50.818;6.972;2023-11-19T09:14:51;12.90;99.90
15636;DHT22;7917;50.818;6.972;2023-11-19T09:17:21;12.90;99.90
15636;DHT22;7917;50.818;6.972;2023-11-19T09:19:49;12.90;99.90
15636;DHT22;7917;50.818;6.972;2023-11-19T09:22:16;13.00;99.90
15636;DHT22;7917;50.818;6.972;2023-11-19T09:24:43;13.00;99.90
15636;DHT22;7917;50.818;6.972;2023-11-19T09:27:11;13.00;99.90
15636;DHT22;7917;50.818;6.972;2023-11-19T09:29:38;13.00;99.90
15636;DHT22;7917;50.818;6.972;2023-11-19T09:32:06;13.10;99.90
15636;DHT22;7917;50.818;6.972;2023-11-19T09:34:33;13.10;99.90
15636;DHT22;7917;50.818;6.972;2023-11-19T09:37:01;13.10;99.90
15636;DHT22;7917;50.818;6.972;2023-11-19T09:39:29;13.10;99.90
15636;DHT22;7917;50.818;6.972;2023-11-19T09:41:55;13.10;99.90
15636;DHT22;7917;50.818;6.972;2023-11-19T09:44:24;13.20;99.90
15636;DHT22;7917;50.818;6.972;2023-11-19T09:46:52;13.20;99.90
15636;DHT22;7917;50.818;6.972;2023-11-19T09:49:21;13.20;99.90
15636;DHT22;7917;50.818;6.972;2023-11-19T09:51:51;13.30;99.90
15636;DHT22;7917;50.818;6.972;2023-11-19T09:54:19;13.30;99.90
15636;DHT22;7917;50.818;6.972;2023-11-19T09:56:46;13.40;99.90
15636;DHT22;7917;50.818;6.972;2023-11-19T09:59:14;13.50;99.90
15636;DHT22;7917;50.818;6.972;2023-11-19T10:01:41;13.50;99.90
15636;DHT22;7917;50.818;6.972;2023-11-19T10:04:10;13.40;99.90
15636;DHT22;7917;50.818;6.972;2023-11-19T10:06:38;13.50;99.90
15636;DHT22;7917;50.818;6.972;2023-11-19T10:09:06;13.60;99.90
15636;DHT22;7917;50.818;6.972;2023-11-19T10:11:34;13.60;99.90
15636;DHT22;7917;50.818;6.972;2023-11-19T10:14:04;13.60;99.90
15636;DHT22;7917;50.818;6.972;2023-11-19T10:16:34;13.70;99.90
15636;DHT22;7917;50.818;6.972;2023-11-19T10:19:00;13.70;99.90
15636;DHT22;7917;50.818;6.972;2023-11-19T10:21:29;13.80;99.90
15636;DHT22;7917;50.818;6.972;2023-11-19T10:23:59;13.90;99.90
15636;DHT22;7917;50.818;6.972;2023-11-19T10:26:27;14.10;99.90
15636;DHT22;7917;50.818;6.972;2023-11-19T10:28:55;14.30;99.90
15636;DHT22;7917;50.818;6.972;2023-11-19T10:31:22;14.30;99.90
15636;DHT22;7917;50.818;6.972;2023-11-19T10:33:51;14.30;99.90
15636;DHT22;7917;50.818;6.972;2023-11-19T10:36:18;14.30;99.90
15636;DHT22;7917;50.818;6.972;2023-11-19T10:38:52;14.30;99.90
15636;DHT22;7917;50.818;6.972;2023-11-19T10:41:27;14.30;99.90
15636;DHT22;7917;50.818;6.972;2023-11-19T10:43:55;14.40;99.90
15636;DHT22;7917;50.818;6.972;2023-11-19T10:46:22;14.60;99.90
15636;DHT22;7917;50.818;6.972;2023-11-19T10:48:49;14.70;99.90
15636;DHT22;7917;50.818;6.972;2023-11-19T10:51:19;14.80;99.90
15636;DHT22;7917;50.818;6.972;2023-11-19T10:53:49;14.80;99.90
15636;DHT22;7917;50.818;6.972;2023-11-19T10:56:20;14.70;99.90
15636;DHT22;7917;50.818;6.972;2023-11-19T10:58:52;14.90;99.90
15636;DHT22;7917;50.818;6.972;2023-11-19T11:01:23;14.90;99.90
15636;DHT22;7917;50.818;6.972;2023-11-19T11:03:52;14.90;99.90
15636;DHT22;7917;50.818;6.972;2023-11-19T11:06:20;14.90;99.90
15636;DHT22;7917;50.818;6.972;2023-11-19T11:08:49;14.80;99.90
15636;DHT22;7917;50.818;6.972;2023-11-19T11:11:20;14.60;99.90
15636;DHT22;7917;50.818;6.972;2023-11-19T11:13:50;14.50;99.90
15636;DHT22;7917;50.818;6.972;2023-11-19T11:16:18;14.60;99.90
15636;DHT22;7917;50.818;6.972;2023-11-19T11:18:47;14.70;99.90
15636;DHT22;7917;50.818;6.972;2023-11-19T11:21:20;14.70;99.90
15636;DHT22;7917;50.818;6.972;2023-11-19T11:24:03;14.60;99.90
15636;DHT22;7917;50.818;6.972;2023-11-19T11:29:35;14.20;99.90
15636;DHT22;7917;50.818;6.972;2023-11-19T11:32:13;14.20;99.90
15636;DHT22;7917;50.818;6.972;2023-11-19T11:35:02;14.10;99.90
15636;DHT22;7917;50.818;6.972;2023-11-19T11:37:39;14.10;99.90
15636;DHT22;7917;50.818;6.972;2023-11-19T11:40:08;14.00;99.90
15636;DHT22;7917;50.818;6.972;2023-11-19T11:42:40;13.80;99.90
15636;DHT22;7917;50.818;6.972;2023-11-19T11:45:09;13.50;99.90
15636;DHT22;7917;50.818;6.972;2023-11-19T11:50:55;13.40;99.90
15636;DHT22;7917;50.818;6.972;2023-11-19T11:53:27;13.40;99.90
15636;DHT22;7917;50.818;6.972;2023-11-19T11:55:58;13.50;99.90
15636;DHT22;7917;50.818;6.972;2023-11-19T11:58:36;13.60;99.90
15636;DHT22;7917;50.818;6.972;2023-11-19T12:01:05;13.50;99.90
15636;DHT22;7917;50.818;6.972;2023-11-19T12:03:36;13.60;99.90
15636;DHT22;7917;50.818;6.972;2023-11-19T12:06:05;13.70;99.90
15636;DHT22;7917;50.818;6.972;2023-11-19T12:08:35;13.70;99.90
15636;DHT22;7917;50.818;6.972;2023-11-19T12:11:03;13.80;99.90
15636;DHT22;7917;50.818;6.972;2023-11-19T12:13:47;14.00;99.90
15636;DHT22;7917;50.818;6.972;2023-11-19T12:16:15;14.00;99.90
15636;DHT22;7917;50.818;6.972;2023-11-19T12:18:42;14.10;99.90
15636;DHT22;7917;50.818;6.972;2023-11-19T12:21:10;13.90;99.90
15636;DHT22;7917;50.818;6.972;2023-11-19T12:23:45;13.70;99.90
15636;DHT22;7917;50.818;6.972;2023-11-19T12:26:34;13.60;99.90
15636;DHT22;7917;50.818;6.972;2023-11-19T12:29:02;13.40;99.90
15636;DHT22;7917;50.818;6.972;2023-11-19T12:31:33;13.30;99.90
15636;DHT22;7917;50.818;6.972;2023-11-19T12:34:09;13.30;99.90
15636;DHT22;7917;50.818;6.972;2023-11-19T12:36:39;13.30;99.90
15636;DHT22;7917;50.818;6.972;2023-11-19T12:39:08;13.20;99.90
15636;DHT22;7917;50.818;6.972;2023-11-19T12:41:50;13.30;99.90
15636;DHT22;7917;50.818;6.972;2023-11-19T12:44:17;13.30;99.90
15636;DHT22;7917;50.818;6.972;2023-11-19T12:46:46;13.30;99.90
15636;DHT22;7917;50.818;6.972;2023-11-19T12:49:14;13.50;99.90
15636;DHT22;7917;50.818;6.972;2023-11-19T12:51:42;13.60;99.90
15636;DHT22;7917;50.818;6.972;2023-11-19T12:54:09;13.70;99.90
15636;DHT22;7917;50.818;6.972;2023-11-19T12:56:36;13.80;99.90
15636;DHT22;7917;50.818;6.972;2023-11-19T12:59:13;13.80;99.90
15636;DHT22;7917;50.818;6.972;2023-11-19T13:01:40;13.90;99.90
15636;DHT22;7917;50.818;6.972;2023-11-19T13:04:18;13.90;99.90
15636;DHT22;7917;50.818;6.972;2023-11-19T13:06:46;13.90;99.90
15636;DHT22;7917;50.818;6.972;2023-11-19T13:09:22;13.90;99.90
15636;DHT22;7917;50.818;6.972;2023-11-19T13:11:50;13.80;99.90
15636;DHT22;7917;50.818;6.972;2023-11-19T13:14:17;13.80;99.90
15636;DHT22;7917;50.818;6.972;2023-11-19T13:16:45;13.80;99.90
15636;DHT22;7917;50.818;6.972;2023-11-19T13:19:12;14.00;99.90
15636;DHT22;7917;50.818;6.972;2023-11-19T13:21:39;14.20;99.90
15636;DHT22;7917;50.818;6.972;2023-11-19T13:24:08;14.30;99.90
15636;DHT22;7917;50.818;6.972;2023-11-19T13:26:35;14.30;99.90
15636;DHT22;7917;50.818;6.972;2023-11-19T13:29:02;14.20;99.90
15636;DHT22;7917;50.818;6.972;2023-11-19T13:31:30;14.20;99.90
15636;DHT22;7917;50.818;6.972;2023-11-19T13:33:57;14.20;99.90
15636;DHT22;7917;50.818;6.972;2023-11-19T13:36:24;14.20;99.90
15636;DHT22;7917;50.818;6.972;2023-11-19T13:38:52;14.10;99.90
15636;DHT22;7917;50.818;6.972;2023-11-19T13:41:25;14.00;99.90
15636;DHT22;7917;50.818;6.972;2023-11-19T13:43:52;14.00;99.90
15636;DHT22;7917;50.818;6.972;2023-11-19T13:46:19;14.10;99.90
15636;DHT22;7917;50.818;6.972;2023-11-19T13:48:46;14.30;99.90
15636;DHT22;7917;50.818;6.972;2023-11-19T13:51:15;14.30;99.90
15636;DHT22;7917;50.818;6.972;2023-11-19T13:53:42;14.20;99.90
15636;DHT22;7917;50.818;6.972;2023-11-19T13:56:10;14.10;99.90
15636;DHT22;7917;50.818;6.972;2023-11-19T13:58:38;14.10;99.90
15636;DHT22;7917;50.818;6.972;2023-11-19T14:01:07;14.00;99.90
15636;DHT22;7917;50.818;6.972;2023-11-19T14:03:34;14.00;99.90
15636;DHT22;7917;50.818;6.972;2023-11-19T14:06:01;14.00;99.90
15636;DHT22;7917;50.818;6.972;2023-11-19T14:08:29;14.10;99.90
15636;DHT22;7917;50.818;6.972;2023-11-19T14:10:56;14.10;99.90
15636;DHT22;7917;50.818;6.972;2023-11-19T14:13:23;14.20;99.90
15636;DHT22;7917;50.818;6.972;2023-11-19T14:15:52;14.20;99.90
15636;DHT22;7917;50.818;6.972;2023-11-19T14:18:19;14.40;99.90
15636;DHT22;7917;50.818;6.972;2023-11-19T14:20:46;14.40;99.90
15636;DHT22;7917;50.818;6.972;2023-11-19T14:23:13;14.40;99.90
15636;DHT22;7917;50.818;6.972;2023-11-19T14:25:40;14.40;99.90
15636;DHT22;7917;50.818;6.972;2023-11-19T14:28:08;14.50;99.90
15636;DHT22;7917;50.818;6.972;2023-11-19T14:30:35;14.40;99.90
15636;DHT22;7917;50.818;6.972;2023-11-19T14:33:03;14.30;99.90
15636;DHT22;7917;50.818;6.972;2023-11-19T14:35:30;14.10;99.90
15636;DHT22;7917;50.818;6.972;2023-11-19T14:37:59;14.10;99.90
15636;DHT22;7917;50.818;6.972;2023-11-19T14:40:27;14.10;99.90
15636;DHT22;7917;50.818;6.972;2023-11-19T14:42:54;14.00;99.90
15636;DHT22;7917;50.818;6.972;2023-11-19T14:45:21;14.00;99.90
15636;DHT22;7917;50.818;6.972;2023-11-19T14:47:48;14.00;99.90
15636;DHT22;7917;50.818;6.972;2023-11-19T14:50:16;14.00;99.90
15636;DHT22;7917;50.818;6.972;2023-11-19T14:52:43;13.80;99.90
15636;DHT22;7917;50.818;6.972;2023-11-19T14:55:11;13.80;99.90
15636;DHT22;7917;50.818;6.972;2023-11-19T14:57:37;13.70;99.90
15636;DHT22;7917;50.818;6.972;2023-11-19T15:00:07;13.60;99.90
15636;DHT22;7917;50.818;6.972;2023-11-19T15:02:40;13.50;99.90
15636;DHT22;7917;50.818;6.972;2023-11-19T15:05:10;13.40;99.90
15636;DHT22;7917;50.818;6.972;2023-11-19T15:07:38;13.30;99.90
15636;DHT22;7917;50.818;6.972;2023-11-19T15:10:07;13.20;99.90
15636;DHT22;7917;50.818;6.972;2023-11-19T15:12:36;13.20;99.90
15636;DHT22;7917;50.818;6.972;2023-11-19T15:15:07;13.10;99.90
15636;DHT22;7917;50.818;6.972;2023-11-19T15:17:34;13.00;99.90
15636;DHT22;7917;50.818;6.972;2023-11-19T15:20:02;12.90;99.90
15636;DHT22;7917;50.818;6.972;2023-11-19T15:22:29;12.80;99.90
15636;DHT22;7917;50.818;6.972;2023-11-19T15:24:56;12.80;99.90
15636;DHT22;7917;50.818;6.972;2023-11-19T15:27:23;12.60;99.90
15636;DHT22;7917;50.818;6.972;2023-11-19T15:29:50;12.60;99.90
15636;DHT22;7917;50.818;6.972;2023-11-19T15:32:17;12.70;99.90
15636;DHT22;7917;50.818;6.972;2023-11-19T15:34:44;12.60;99.90
15636;DHT22;7917;50.818;6.972;2023-11-19T15:37:11;12.70;99.90
15636;DHT22;7917;50.818;6.972;2023-11-19T15:39:40;12.70;99.90
15636;DHT22;7917;50.818;6.972;2023-11-19T15:42:08;12.70;99.90
15636;DHT22;7917;50.818;6.972;2023-11-19T15:44:37;12.80;99.90
15636;DHT22;7917;50.818;6.972;2023-11-19T15:47:04;12.70;99.90
15636;DHT22;7917;50.818;6.972;2023-11-19T15:49:31;12.70;99.90
15636;DHT22;7917;50.818;6.972;2023-11-19T15:51:58;12.70;99.90
15636;DHT22;7917;50.818;6.972;2023-11-19T15:54:25;12.60;99.90
15636;DHT22;7917;50.818;6.972;2023-11-19T15:56:52;12.50;99.90
15636;DHT22;7917;50.818;6.972;2023-11-19T15:59:20;12.40;99.90
15636;DHT22;7917;50.818;6.972;2023-11-19T16:01:47;12.40;99.90